Time;durP1;ratioP1;P1;durP2;ratioP2;P2;SDS_P1;SDS_P2;PMS_P1;PMS_P2;Temp;Humidity;BMP_temperature;BMP_pressure;BME280_temperature;BME280_humidity;BME280_pressure;Samples;Min_cycle;Max_cycle;Signal;HPM_P1;HPM_P2
2023/06/30 00:00:15;;;;;;;9.20;5.18;;;20.20;99.90;;;;;;5038786;28;20021;-71
2023/06/30 00:02:42;;;;;;;10.48;5.95;;;20.20;99.90;;;;;;5039456;28;20032;-71
2023/06/30 00:05:08;;;;;;;9.55;5.47;;;20.40;99.90;;;;;;5038856;28;20029;-71
2023/06/30 00:07:34;;;;;;;9.02;5.90;;;20.50;99.90;;;;;;5038408;28;20121;-71
2023/06/30 00:09:59;;;;;;;10.77;6.30;;;20.60;99.90;;;;;;5039731;28;20104;-71
2023/06/30 00:12:25;;;;;;;12.80;5.70;;;20.70;99.90;;;;;;5038828;28;20075;-71
2023/06/30 00:14:50;;;;;;;11.13;5.63;;;20.60;99.90;;;;;;5039497;28;20094;-71
2023/06/30 00:17:16;;;;;;;8.75;6.10;;;20.50;99.90;;;;;;5038385;28;20093;-71
2023/06/30 00:19:41;;;;;;;13.27;5.50;;;20.50;99.90;;;;;;5038240;28;20108;-71
2023/06/30 00:22:07;;;;;;;10.88;5.60;;;20.50;99.90;;;;;;5038400;28;20018;-71
2023/06/30 00:24:33;;;;;;;11.23;5.63;;;20.70;99.90;;;;;;5039125;28;20033;-68
2023/06/30 00:26:58;;;;;;;9.73;5.72;;;20.80;99.90;;;;;;5038323;28;20022;-68
2023/06/30 00:29:24;;;;;;;11.80;5.65;;;20.90;99.90;;;;;;5039293;28;20037;-68
2023/06/30 00:31:49;;;;;;;9.10;5.10;;;21.00;99.90;;;;;;5038828;28;20101;-68
2023/06/30 00:34:15;;;;;;;10.93;6.30;;;21.00;99.90;;;;;;5038205;28;20051;-68
2023/06/30 00:36:40;;;;;;;14.60;5.47;;;21.00;99.90;;;;;;5038951;28;20036;-68
2023/06/30 00:39:06;;;;;;;8.80;5.15;;;20.90;99.90;;;;;;5038336;28;20032;-68
2023/06/30 00:41:32;;;;;;;9.70;4.97;;;20.60;99.90;;;;;;5038515;28;20166;-69
2023/06/30 00:43:58;;;;;;;9.57;5.43;;;20.50;99.90;;;;;;5038259;28;20033;-68
2023/06/30 00:46:23;;;;;;;12.32;6.40;;;20.40;99.90;;;;;;5037854;28;20028;-68
2023/06/30 00:48:49;;;;;;;10.43;5.25;;;20.40;99.90;;;;;;5037584;28;20025;-68
2023/06/30 00:51:15;;;;;;;10.77;5.70;;;20.40;99.90;;;;;;5038586;28;20026;-68
2023/06/30 00:53:41;;;;;;;9.55;5.70;;;20.40;99.90;;;;;;5038611;28;20025;-68
2023/06/30 00:56:06;;;;;;;10.68;5.82;;;20.40;99.90;;;;;;5038512;28;20025;-68
2023/06/30 00:58:32;;;;;;;12.15;5.40;;;20.40;99.90;;;;;;5038572;28;20067;-68
2023/06/30 01:01:21;;;;;;;12.20;5.53;;;20.50;99.90;;;;;;5037265;28;20227;-68
2023/06/30 01:03:55;;;;;;;13.48;5.35;;;20.50;99.90;;;;;;5037872;28;20029;-68
2023/06/30 01:06:55;;;;;;;9.95;5.03;;;20.50;99.90;;;;;;5038207;28;20029;-68
2023/06/30 01:09:25;;;;;;;11.32;5.45;;;20.70;99.90;;;;;;5037726;28;20022;-68
2023/06/30 01:11:51;;;;;;;8.77;5.32;;;20.70;99.90;;;;;;5037728;28;20132;-68
2023/06/30 01:14:18;;;;;;;7.40;5.03;;;20.70;99.90;;;;;;5037342;28;20112;-69
2023/06/30 01:16:44;;;;;;;11.05;5.78;;;20.70;99.90;;;;;;5038046;28;20022;-68
2023/06/30 01:19:26;;;;;;;15.32;6.50;;;20.70;99.90;;;;;;5038010;28;20025;-68
2023/06/30 01:22:02;;;;;;;10.90;5.78;;;20.70;99.90;;;;;;5037200;28;20029;-68
2023/06/30 01:24:33;;;;;;;10.45;6.00;;;20.80;99.90;;;;;;5037939;28;20018;-68
2023/06/30 01:27:00;;;;;;;;;;;20.70;99.90;;;;;;5037473;28;20028;-69
2023/06/30 01:29:25;;;;;;;11.52;5.85;;;20.80;99.90;;;;;;5037024;28;19905;-68
2023/06/30 01:31:51;;;;;;;18.67;7.03;;;20.80;99.90;;;;;;5037032;28;20028;-68
2023/06/30 01:34:17;;;;;;;15.73;5.97;;;20.90;99.90;;;;;;5037921;28;20029;-68
2023/06/30 01:36:42;;;;;;;13.02;6.70;;;20.90;99.90;;;;;;5036822;28;20064;-68
2023/06/30 01:39:08;;;;;;;14.27;6.57;;;20.90;99.90;;;;;;5037179;28;20033;-68
2023/06/30 01:41:33;;;;;;;13.20;6.53;;;20.80;99.90;;;;;;5038184;28;20017;-68
2023/06/30 01:44:00;;;;;;;12.15;6.93;;;20.80;99.90;;;;;;5036781;28;20017;-68
2023/06/30 01:46:26;;;;;;;12.20;7.00;;;20.80;99.90;;;;;;5036634;28;20097;-68
2023/06/30 01:48:52;;;;;;;11.18;6.53;;;20.60;99.90;;;;;;5036597;28;20054;-68
2023/06/30 01:51:18;;;;;;;11.50;7.30;;;20.50;99.90;;;;;;5036780;28;20059;-68
2023/06/30 01:53:43;;;;;;;13.73;6.40;;;20.40;99.90;;;;;;5036514;28;20026;-68
2023/06/30 01:56:10;;;;;;;14.98;6.95;;;20.30;99.90;;;;;;5036680;28;20029;-68
2023/06/30 01:58:35;;;;;;;14.02;7.13;;;20.20;99.90;;;;;;5037108;28;20032;-68
2023/06/30 02:01:01;;;;;;;14.48;7.32;;;19.90;99.90;;;;;;5037478;28;20030;-68
2023/06/30 02:03:26;;;;;;;12.18;6.55;;;19.80;99.90;;;;;;5036444;28;20029;-68
2023/06/30 02:05:52;;;;;;;15.15;7.82;;;19.80;99.90;;;;;;5036318;28;20029;-68
2023/06/30 02:08:17;;;;;;;12.95;7.35;;;19.80;99.90;;;;;;5036694;28;20033;-68
2023/06/30 02:10:43;;;;;;;13.02;7.32;;;19.70;99.90;;;;;;5036694;28;20018;-68
2023/06/30 02:13:09;;;;;;;13.65;7.30;;;19.70;99.90;;;;;;5035611;28;20048;-68
2023/06/30 02:15:34;;;;;;;13.45;7.60;;;19.70;99.90;;;;;;5036632;28;20033;-68
2023/06/30 02:18:00;;;;;;;11.60;6.50;;;19.70;99.90;;;;;;5036420;28;20025;-68
2023/06/30 02:20:25;;;;;;;11.98;6.63;;;19.70;99.90;;;;;;5036959;28;20108;-68
2023/06/30 02:22:51;;;;;;;14.25;6.75;;;19.70;99.90;;;;;;5037302;28;20021;-68
2023/06/30 02:25:16;;;;;;;13.95;7.20;;;19.70;99.90;;;;;;5037122;28;20121;-68
2023/06/30 02:27:45;;;;;;;15.43;6.63;;;19.70;99.90;;;;;;5036293;28;20120;-69
2023/06/30 02:30:11;;;;;;;11.40;6.90;;;19.60;99.90;;;;;;5036379;28;20021;-68
2023/06/30 02:32:40;;;;;;;13.60;6.93;;;19.50;99.90;;;;;;5036298;28;20109;-68
2023/06/30 02:35:07;;;;;;;12.40;7.38;;;19.50;99.90;;;;;;5037006;28;20025;-68
2023/06/30 02:37:32;;;;;;;17.02;7.63;;;19.40;99.90;;;;;;5036291;28;20033;-68
2023/06/30 02:39:59;;;;;;;11.13;6.93;;;19.40;99.90;;;;;;5036520;28;20037;-68
2023/06/30 02:42:24;;;;;;;16.58;7.50;;;19.50;99.90;;;;;;5035946;28;20025;-68
2023/06/30 02:44:50;;;;;;;13.05;7.55;;;19.50;99.90;;;;;;5036659;28;20032;-68
2023/06/30 02:47:16;;;;;;;13.75;7.53;;;19.50;99.90;;;;;;5036039;28;20026;-68
2023/06/30 02:49:41;;;;;;;13.18;7.32;;;19.60;99.90;;;;;;5036308;28;20018;-68
2023/06/30 02:52:08;;;;;;;12.50;7.10;;;19.50;99.90;;;;;;5035878;28;20021;-68
2023/06/30 02:54:34;;;;;;;13.15;7.45;;;19.50;99.90;;;;;;5036302;28;20025;-68
2023/06/30 02:56:59;;;;;;;11.90;7.00;;;19.50;99.90;;;;;;5035878;28;20021;-68
2023/06/30 02:59:25;;;;;;;14.82;7.43;;;19.50;99.90;;;;;;5035980;28;20022;-68
2023/06/30 03:01:50;;;;;;;10.07;6.80;;;19.40;99.90;;;;;;5036097;28;20075;-68
2023/06/30 03:04:16;;;;;;;11.25;7.22;;;19.50;99.90;;;;;;5035814;28;20022;-68
2023/06/30 03:06:41;;;;;;;15.85;8.48;;;19.50;99.90;;;;;;5036014;28;20112;-68
2023/06/30 03:09:08;;;;;;;11.65;7.10;;;19.60;99.90;;;;;;5035807;28;20025;-68
2023/06/30 03:11:33;;;;;;;22.90;7.47;;;19.60;99.90;;;;;;5035631;28;20025;-68
2023/06/30 03:13:59;;;;;;;14.23;7.15;;;19.70;99.90;;;;;;5036181;28;20044;-68
2023/06/30 03:16:25;;;;;;;14.02;7.32;;;19.80;99.90;;;;;;5036706;28;20068;-68
2023/06/30 03:18:50;;;;;;;14.40;7.05;;;19.90;99.90;;;;;;5036090;28;20018;-68
2023/06/30 03:21:16;;;;;;;11.90;7.22;;;19.90;99.90;;;;;;5035760;28;20159;-68
2023/06/30 03:23:42;;;;;;;10.60;7.18;;;19.80;99.90;;;;;;5035827;28;20025;-68
2023/06/30 03:26:07;;;;;;;13.38;7.65;;;19.70;99.90;;;;;;5040178;28;20053;-68
2023/06/30 03:28:33;;;;;;;16.77;7.38;;;19.60;99.90;;;;;;5039085;28;20026;-68
2023/06/30 03:30:59;;;;;;;18.58;7.88;;;19.50;99.90;;;;;;5040307;28;20025;-68
2023/06/30 03:33:24;;;;;;;12.70;6.60;;;19.60;99.90;;;;;;5039956;28;20071;-68
2023/06/30 03:35:50;;;;;;;11.88;7.10;;;19.80;99.90;;;;;;5040219;28;20036;-68
2023/06/30 03:38:16;;;;;;;12.93;7.65;;;19.80;99.90;;;;;;5039349;28;20030;-68
2023/06/30 03:40:41;;;;;;;14.48;7.93;;;19.90;99.90;;;;;;5039147;28;20140;-68
2023/06/30 03:43:07;;;;;;;12.60;6.63;;;19.90;99.90;;;;;;5039385;28;20025;-68
2023/06/30 03:45:33;;;;;;;17.77;7.68;;;19.90;99.90;;;;;;5039430;28;20056;-68
2023/06/30 03:47:58;;;;;;;18.98;7.05;;;19.90;99.90;;;;;;5039028;28;20024;-68
2023/06/30 03:50:24;;;;;;;11.57;7.20;;;19.90;99.90;;;;;;5038977;28;20029;-68
2023/06/30 03:52:49;;;;;;;14.60;7.38;;;19.90;99.90;;;;;;5039108;28;20017;-68
2023/06/30 03:55:15;;;;;;;14.40;7.65;;;19.80;99.90;;;;;;5039167;28;20175;-68
2023/06/30 03:57:40;;;;;;;11.75;6.70;;;19.90;99.90;;;;;;5038752;28;20025;-68
2023/06/30 04:00:08;;;;;;;13.55;7.32;;;19.90;99.90;;;;;;5039168;28;20032;-68
2023/06/30 04:02:34;;;;;;;14.55;7.25;;;19.90;99.90;;;;;;5038925;28;20107;-68
2023/06/30 04:04:59;;;;;;;13.07;7.32;;;19.90;99.90;;;;;;5038654;28;20060;-68
2023/06/30 04:07:25;;;;;;;15.68;8.77;;;19.90;99.90;;;;;;5038852;28;20026;-68
2023/06/30 04:09:51;;;;;;;17.67;7.18;;;19.90;99.90;;;;;;5038872;28;20021;-68
2023/06/30 04:12:16;;;;;;;19.13;8.10;;;19.80;99.90;;;;;;5039007;28;20018;-68
2023/06/30 04:14:42;;;;;;;13.07;8.05;;;19.80;99.90;;;;;;5038781;28;20053;-68
2023/06/30 04:17:07;;;;;;;19.92;8.48;;;19.80;99.90;;;;;;5039207;28;20022;-68
2023/06/30 04:19:33;;;;;;;12.68;7.65;;;19.70;99.90;;;;;;5038721;28;20037;-68
2023/06/30 04:21:58;;;;;;;16.13;7.47;;;19.60;99.90;;;;;;5039360;28;20028;-68
2023/06/30 04:24:24;;;;;;;17.85;8.57;;;19.60;99.90;;;;;;5038552;28;20100;-68
2023/06/30 04:26:49;;;;;;;21.13;8.20;;;19.70;99.90;;;;;;5038638;28;20018;-68
2023/06/30 04:29:15;;;;;;;15.27;8.43;;;19.70;99.90;;;;;;5038542;28;20113;-68
2023/06/30 04:31:40;;;;;;;19.05;8.82;;;19.70;99.90;;;;;;5038349;28;20028;-68
2023/06/30 04:34:06;;;;;;;17.23;8.50;;;19.80;99.90;;;;;;5038453;28;20030;-68
2023/06/30 04:36:31;;;;;;;11.90;7.63;;;19.70;99.90;;;;;;5038297;28;20033;-68
2023/06/30 04:38:57;;;;;;;12.32;8.38;;;19.60;99.90;;;;;;5087985;22;20064;-69
2023/06/30 04:41:23;;;;;;;12.32;8.05;;;19.60;99.90;;;;;;5077982;28;20066;-68
2023/06/30 04:43:48;;;;;;;13.57;7.53;;;19.60;99.90;;;;;;5078548;28;20016;-68
2023/06/30 04:46:14;;;;;;;17.70;8.35;;;19.70;99.90;;;;;;5078665;28;20092;-68
2023/06/30 04:48:40;;;;;;;19.63;8.90;;;19.80;99.90;;;;;;5078168;28;20074;-68
2023/06/30 04:51:05;;;;;;;21.33;8.77;;;19.90;99.90;;;;;;5077770;28;20074;-68
2023/06/30 04:53:31;;;;;;;12.00;8.48;;;20.00;99.90;;;;;;5078651;28;20020;-68
2023/06/30 04:55:57;;;;;;;14.00;8.38;;;20.00;99.90;;;;;;5077714;28;20077;-68
2023/06/30 04:58:23;;;;;;;19.42;9.25;;;20.10;99.90;;;;;;5077461;28;20087;-68
2023/06/30 05:00:49;;;;;;;16.85;9.50;;;20.10;99.90;;;;;;5078443;28;20028;-68
2023/06/30 05:03:15;;;;;;;15.40;9.07;;;20.10;99.90;;;;;;5077534;28;20036;-68
2023/06/30 05:05:40;;;;;;;21.30;10.15;;;20.20;99.90;;;;;;5078663;28;20024;-68
2023/06/30 05:08:06;;;;;;;18.70;9.38;;;20.10;99.90;;;;;;5077371;28;20025;-68
2023/06/30 05:10:31;;;;;;;21.33;9.48;;;20.10;99.90;;;;;;5077826;28;20016;-68
2023/06/30 05:12:57;;;;;;;15.80;8.65;;;20.10;99.90;;;;;;5078281;28;20089;-68
2023/06/30 05:15:22;;;;;;;17.50;8.75;;;20.10;99.90;;;;;;5077395;28;20047;-68
2023/06/30 05:17:48;;;;;;;16.73;9.13;;;20.20;99.90;;;;;;5077364;28;20021;-68
2023/06/30 05:20:13;;;;;;;17.35;9.00;;;20.10;99.90;;;;;;5077158;28;20024;-68
2023/06/30 05:22:39;;;;;;;16.45;9.32;;;20.10;99.90;;;;;;5077202;28;20043;-68
2023/06/30 05:25:05;;;;;;;18.42;9.70;;;20.10;99.90;;;;;;5078044;28;20040;-68
2023/06/30 05:27:31;;;;;;;19.08;10.20;;;20.10;99.90;;;;;;5077744;28;20063;-68
2023/06/30 05:29:56;;;;;;;16.60;9.25;;;20.10;99.90;;;;;;5077056;28;20031;-68
2023/06/30 05:32:23;;;;;;;18.38;8.95;;;20.10;99.90;;;;;;5077243;28;20028;-68
2023/06/30 05:34:49;;;;;;;24.77;8.85;;;20.10;99.90;;;;;;5076816;28;20024;-68
2023/06/30 05:37:15;;;;;;;14.30;9.15;;;20.20;99.90;;;;;;5076972;28;20024;-68
2023/06/30 05:39:40;;;;;;;17.83;10.00;;;20.30;99.90;;;;;;5076752;28;20119;-68
2023/06/30 05:42:06;;;;;;;18.27;10.25;;;20.30;99.90;;;;;;5077837;28;20024;-68
2023/06/30 05:44:32;;;;;;;16.23;9.35;;;20.30;99.90;;;;;;5076586;28;20028;-68
2023/06/30 05:46:57;;;;;;;18.73;9.77;;;20.30;99.90;;;;;;5077007;28;20017;-68
2023/06/30 05:49:24;;;;;;;15.88;9.38;;;20.30;99.90;;;;;;5076549;28;20024;-68
2023/06/30 05:51:49;;;;;;;19.98;9.60;;;20.30;99.90;;;;;;5076886;28;20028;-67
2023/06/30 05:54:15;;;;;;;20.05;10.35;;;20.20;99.90;;;;;;5077147;28;20021;-69
2023/06/30 05:56:40;;;;;;;22.27;11.70;;;20.20;99.90;;;;;;5077344;28;20031;-68
2023/06/30 05:59:10;;;;;;;19.35;10.05;;;20.20;99.90;;;;;;5077286;28;20024;-69
2023/06/30 06:01:39;;;;;;;20.15;11.05;;;20.20;99.90;;;;;;5076580;28;20040;-68
2023/06/30 06:04:09;;;;;;;19.70;10.48;;;20.20;99.90;;;;;;5076622;28;20027;-68
2023/06/30 06:06:35;;;;;;;23.63;11.57;;;20.20;99.90;;;;;;5076191;28;20021;-68
2023/06/30 06:09:01;;;;;;;23.25;12.18;;;20.20;99.90;;;;;;5076213;28;20027;-68
2023/06/30 06:11:26;;;;;;;27.13;12.43;;;20.20;99.90;;;;;;5077076;28;20020;-68
2023/06/30 06:13:52;;;;;;;22.50;12.35;;;20.20;99.90;;;;;;5076989;28;20043;-69
2023/06/30 06:16:17;;;;;;;27.10;12.95;;;20.20;99.90;;;;;;5076681;28;20036;-69
2023/06/30 06:18:44;;;;;;;23.77;12.30;;;20.20;99.90;;;;;;5076611;28;20055;-69
2023/06/30 06:21:09;;;;;;;25.63;11.63;;;20.30;99.90;;;;;;5077229;28;20099;-69
2023/06/30 06:23:35;;;;;;;26.90;13.07;;;20.30;99.90;;;;;;5076648;28;20034;-68
2023/06/30 06:26:04;;;;;;;24.50;12.48;;;20.20;99.90;;;;;;5077339;28;20020;-69
2023/06/30 06:28:29;;;;;;;23.45;12.43;;;20.30;99.90;;;;;;5077558;28;20032;-69
2023/06/30 06:30:55;;;;;;;24.80;13.50;;;20.30;99.90;;;;;;5076200;28;20021;-72
2023/06/30 06:33:20;;;;;;;26.10;13.20;;;20.30;99.90;;;;;;5076101;28;20046;-71
2023/06/30 06:35:49;;;;;;;26.48;12.70;;;20.30;99.90;;;;;;5076171;28;20024;-72
2023/06/30 06:38:17;;;;;;;24.55;13.70;;;20.30;99.90;;;;;;5076775;28;20043;-72
2023/06/30 06:40:43;;;;;;;25.30;12.82;;;20.30;99.90;;;;;;5077020;28;20049;-72
2023/06/30 06:43:08;;;;;;;25.38;13.23;;;20.30;99.90;;;;;;5076014;28;20024;-72
2023/06/30 06:45:34;;;;;;;21.45;12.43;;;20.30;99.90;;;;;;5076418;28;20031;-71
2023/06/30 06:48:28;;;;;;;23.70;12.82;;;20.30;99.90;;;;;;5075876;28;20021;-70
2023/06/30 06:50:59;;;;;;;28.42;13.18;;;20.30;99.90;;;;;;5075976;28;20024;-72
2023/06/30 06:53:33;;;;;;;29.73;14.68;;;20.30;99.90;;;;;;5077092;28;20036;-69
2023/06/30 06:55:59;;;;;;;25.23;13.70;;;20.30;99.90;;;;;;5076450;28;20028;-69
2023/06/30 06:58:27;;;;;;;25.83;15.10;;;20.30;99.90;;;;;;5076137;28;20024;-69
2023/06/30 07:00:53;;;;;;;28.88;13.80;;;20.20;99.90;;;;;;5080424;28;20028;-69
2023/06/30 07:03:19;;;;;;;27.23;13.55;;;20.30;99.90;;;;;;5080877;28;20032;-69
2023/06/30 07:05:45;;;;;;;27.75;14.00;;;20.30;99.90;;;;;;5079709;28;20111;-69
2023/06/30 07:08:12;;;;;;;26.17;14.55;;;20.30;99.90;;;;;;5080403;28;20051;-69
2023/06/30 07:10:38;;;;;;;25.38;13.80;;;20.20;99.90;;;;;;5079735;28;20016;-69
2023/06/30 07:13:04;;;;;;;31.77;14.43;;;20.30;99.90;;;;;;5080383;28;20059;-69
2023/06/30 07:15:30;;;;;;;30.00;14.93;;;20.20;99.90;;;;;;5079857;28;20037;-69
2023/06/30 07:17:56;;;;;;;29.17;13.95;;;20.10;99.90;;;;;;5080512;28;20029;-69
2023/06/30 07:20:23;;;;;;;11.50;5.78;;;20.00;99.90;;;;;;5079902;28;20024;-69
2023/06/30 07:22:48;;;;;;;10.27;5.10;;;19.70;99.90;;;;;;5079462;28;20035;-69
2023/06/30 07:25:14;;;;;;;8.93;4.40;;;19.60;99.90;;;;;;5079379;28;20025;-69
2023/06/30 07:27:40;;;;;;;5.82;3.40;;;19.60;99.90;;;;;;5079678;28;20024;-69
2023/06/30 07:30:06;;;;;;;6.65;3.53;;;19.60;99.90;;;;;;5079633;28;20044;-69
2023/06/30 07:32:34;;;;;;;6.47;2.63;;;19.60;99.90;;;;;;5080169;28;20025;-69
2023/06/30 07:35:02;;;;;;;3.20;2.05;;;19.60;99.90;;;;;;5079260;28;20036;-69
2023/06/30 07:37:27;;;;;;;2.22;1.60;;;19.60;99.90;;;;;;5078981;28;20029;-69
2023/06/30 07:39:53;;;;;;;2.05;1.33;;;19.70;99.90;;;;;;5080186;28;20040;-69
2023/06/30 07:42:18;;;;;;;8.85;1.42;;;19.60;99.90;;;;;;5079551;28;20092;-69
2023/06/30 07:44:44;;;;;;;2.10;1.27;;;19.60;99.90;;;;;;5079057;28;20024;-69
2023/06/30 07:47:10;;;;;;;2.10;1.10;;;19.60;99.90;;;;;;5078935;28;20028;-69
2023/06/30 07:49:35;;;;;;;4.22;1.00;;;19.50;99.90;;;;;;5078786;28;20024;-69
2023/06/30 07:52:01;;;;;;;0.93;0.77;;;19.60;99.90;;;;;;5079049;28;20046;-69
2023/06/30 07:54:26;;;;;;;1.70;1.15;;;19.60;99.90;;;;;;5078884;28;20017;-69
2023/06/30 07:56:52;;;;;;;1.17;1.08;;;19.60;99.90;;;;;;5079274;28;20033;-69
2023/06/30 07:59:18;;;;;;;2.08;1.13;;;19.60;99.90;;;;;;5078523;28;20024;-69
2023/06/30 08:01:43;;;;;;;2.38;1.15;;;19.50;99.90;;;;;;5079073;28;20035;-69
2023/06/30 08:04:09;;;;;;;3.72;1.13;;;19.40;99.90;;;;;;5078688;28;20032;-69
2023/06/30 08:06:35;;;;;;;1.55;0.90;;;19.20;99.90;;;;;;5078576;28;20036;-69
2023/06/30 08:09:00;;;;;;;2.63;0.90;;;19.10;99.90;;;;;;5079489;28;20025;-68
2023/06/30 08:11:26;;;;;;;0.80;0.50;;;19.10;99.90;;;;;;5078224;28;20021;-69
2023/06/30 08:13:51;;;;;;;1.27;0.75;;;19.10;99.90;;;;;;5078503;28;20082;-69
2023/06/30 08:16:17;;;;;;;1.77;0.43;;;19.20;99.90;;;;;;5078482;28;20032;-69
2023/06/30 08:18:42;;;;;;;0.60;0.60;;;19.20;99.90;;;;;;5078688;28;20052;-69
2023/06/30 08:21:08;;;;;;;2.97;0.50;;;19.20;99.90;;;;;;5078995;28;20025;-69
2023/06/30 08:23:33;;;;;;;2.95;0.65;;;18.90;99.90;;;;;;5078492;28;20047;-68
2023/06/30 08:25:59;;;;;;;7.22;0.55;;;18.80;99.90;;;;;;5078360;28;20020;-68
2023/06/30 08:28:25;;;;;;;0.40;0.35;;;18.80;99.90;;;;;;5078566;28;20167;-69
2023/06/30 08:30:50;;;;;;;0.88;0.40;;;18.90;99.90;;;;;;5078271;28;20023;-69
2023/06/30 08:33:16;;;;;;;1.20;0.30;;;18.90;99.90;;;;;;5078404;28;20070;-69
2023/06/30 08:35:41;;;;;;;1.20;0.40;;;19.00;99.90;;;;;;5079055;28;20025;-69
2023/06/30 08:38:07;;;;;;;1.27;0.38;;;19.00;99.90;;;;;;5078355;28;20115;-70
2023/06/30 08:40:33;;;;;;;1.00;0.30;;;18.90;99.90;;;;;;5079033;28;20056;-69
2023/06/30 08:43:02;;;;;;;2.58;0.40;;;18.90;99.90;;;;;;5078412;28;20032;-69
2023/06/30 08:45:29;;;;;;;0.52;0.52;;;19.10;99.90;;;;;;5078838;28;20025;-69
2023/06/30 08:48:02;;;;;;;3.30;0.32;;;19.00;99.90;;;;;;5077895;28;20088;-69
2023/06/30 08:50:28;;;;;;;3.00;0.30;;;19.20;99.90;;;;;;5079479;28;20099;-69
2023/06/30 08:52:54;;;;;;;1.48;0.50;;;19.40;99.90;;;;;;5077812;28;20025;-69
2023/06/30 08:55:20;;;;;;;0.40;0.40;;;19.50;99.90;;;;;;5078704;28;20028;-69
2023/06/30 08:57:46;;;;;;;0.50;0.32;;;19.50;99.90;;;;;;5077651;28;20111;-69
2023/06/30 09:00:12;;;;;;;3.40;0.47;;;19.50;99.90;;;;;;5078562;28;20032;-69
2023/06/30 09:02:38;;;;;;;0.40;0.25;;;19.40;99.90;;;;;;5078478;28;20035;-69
2023/06/30 09:05:05;;;;;;;0.85;0.60;;;19.40;99.90;;;;;;5077473;28;20039;-69
2023/06/30 09:07:38;;;;;;;3.13;0.40;;;19.40;99.90;;;;;;5077958;28;20024;-69
2023/06/30 09:10:08;;;;;;;1.33;0.30;;;19.40;99.90;;;;;;5077483;28;20024;-69
2023/06/30 09:12:38;;;;;;;0.17;0.13;;;19.50;99.90;;;;;;5078847;28;20020;-69
2023/06/30 09:15:05;;;;;;;2.17;0.30;;;19.50;99.90;;;;;;5078643;28;20021;-69
2023/06/30 09:17:31;;;;;;;0.70;0.22;;;19.60;99.90;;;;;;5077389;28;20016;-69
2023/06/30 09:19:57;;;;;;;2.28;0.30;;;19.60;99.90;;;;;;5077514;28;20024;-69
2023/06/30 09:22:23;;;;;;;0.65;0.20;;;19.50;99.90;;;;;;5076926;28;20024;-69
2023/06/30 09:24:48;;;;;;;1.67;0.50;;;19.50;99.90;;;;;;5077555;28;20051;-69
2023/06/30 09:27:16;;;;;;;0.17;0.17;;;19.60;99.90;;;;;;5077881;28;20019;-69
2023/06/30 09:29:41;;;;;;;0.13;0.13;;;19.50;99.90;;;;;;5076982;28;20024;-69
2023/06/30 09:32:07;;;;;;;0.40;0.22;;;19.50;99.90;;;;;;5077946;28;20070;-69
2023/06/30 09:34:33;;;;;;;0.10;0.10;;;19.40;99.90;;;;;;5077219;28;20028;-69
2023/06/30 09:36:58;;;;;;;0.17;0.17;;;19.40;99.90;;;;;;5076942;28;20020;-69
2023/06/30 09:39:24;;;;;;;1.42;0.20;;;19.50;99.90;;;;;;5078217;28;20020;-69
2023/06/30 09:41:51;;;;;;;0.20;0.20;;;19.60;99.90;;;;;;5078332;28;20035;-69
2023/06/30 09:44:22;;;;;;;0.20;0.20;;;19.50;99.90;;;;;;5077736;28;20028;-69
2023/06/30 09:46:52;;;;;;;1.20;0.30;;;19.60;99.90;;;;;;5077783;28;20025;-69
2023/06/30 09:49:32;;;;;;;0.82;0.20;;;19.60;99.90;;;;;;5077004;28;20112;-69
2023/06/30 09:51:59;;;;;;;0.20;0.20;;;19.70;99.90;;;;;;5077438;28;20027;-70
2023/06/30 09:54:25;;;;;;;0.30;0.30;;;19.70;99.90;;;;;;5076652;28;20024;-70
2023/06/30 09:57:09;;;;;;;0.30;0.30;;;19.60;99.90;;;;;;5077439;28;20076;-70
2023/06/30 09:59:36;;;;;;;0.50;0.38;;;19.60;99.90;;;;;;5076556;28;20025;-70
2023/06/30 10:02:02;;;;;;;0.20;0.20;;;19.70;99.90;;;;;;5076564;28;20025;-70
2023/06/30 10:04:30;;;;;;;1.05;0.30;;;19.80;99.90;;;;;;5076356;28;20028;-69
2023/06/30 10:06:56;;;;;;;8.68;0.88;;;19.80;99.90;;;;;;5076385;28;20031;-70
2023/06/30 10:09:23;;;;;;;0.57;0.30;;;19.70;99.90;;;;;;5077254;28;20032;-69
2023/06/30 10:11:56;;;;;;;0.40;0.40;;;19.80;99.90;;;;;;5076483;28;20017;-69
2023/06/30 10:14:30;;;;;;;0.57;0.30;;;19.70;99.90;;;;;;5076337;28;20020;-69
2023/06/30 10:16:57;;;;;;;0.90;0.57;;;19.70;99.90;;;;;;5076201;28;20024;-69
2023/06/30 10:19:24;;;;;;;1.20;0.50;;;19.60;99.90;;;;;;5076228;28;20078;-69
2023/06/30 10:21:50;;;;;;;0.63;0.40;;;19.60;99.90;;;;;;5076190;28;20053;-70
2023/06/30 10:24:19;;;;;;;0.77;0.50;;;19.50;99.90;;;;;;5076216;28;20063;-70
2023/06/30 10:26:47;;;;;;;0.40;0.40;;;19.60;99.90;;;;;;5076428;28;20060;-69
2023/06/30 10:29:13;;;;;;;0.95;0.40;;;19.70;99.90;;;;;;5076483;28;20025;-70
2023/06/30 10:31:39;;;;;;;0.77;0.50;;;19.70;99.90;;;;;;5076526;28;20025;-70
2023/06/30 10:34:05;;;;;;;0.40;0.40;;;19.80;99.90;;;;;;5075383;28;20025;-70
2023/06/30 10:36:32;;;;;;;1.30;0.40;;;19.80;99.90;;;;;;5076101;28;20029;-69
2023/06/30 10:38:58;;;;;;;2.83;0.63;;;19.80;99.90;;;;;;5097564;22;20032;-74
2023/06/30 10:41:24;;;;;;;1.95;0.60;;;19.90;99.90;;;;;;5076763;28;20090;-74
2023/06/30 10:44:09;;;;;;;0.50;0.50;;;19.90;99.90;;;;;;5076228;28;20020;-75
2023/06/30 10:46:56;;;;;;;0.75;0.73;;;19.90;99.90;;;;;;5075872;28;20028;-74
2023/06/30 10:49:39;;;;;;;0.65;0.65;;;19.90;99.90;;;;;;5075853;28;20025;-74
2023/06/30 10:52:23;;;;;;;0.80;0.50;;;19.90;99.90;;;;;;5075852;28;20025;-75
2023/06/30 10:54:52;;;;;;;0.80;0.70;;;20.00;99.90;;;;;;5076622;28;20116;-74
2023/06/30 10:57:28;;;;;;;0.82;0.60;;;20.10;99.90;;;;;;5076038;28;20027;-74
2023/06/30 11:00:06;;;;;;;0.63;0.63;;;20.10;99.90;;;;;;5075595;28;20021;-74
2023/06/30 11:02:32;;;;;;;0.65;0.60;;;20.00;99.90;;;;;;5076708;28;20075;-74
2023/06/30 11:05:24;;;;;;;0.95;0.82;;;19.90;99.90;;;;;;5075568;28;20123;-74
2023/06/30 11:07:54;;;;;;;0.77;0.70;;;20.00;99.90;;;;;;5075998;28;20021;-70
2023/06/30 11:10:46;;;;;;;1.40;0.85;;;20.00;99.90;;;;;;5075679;28;20025;-70
2023/06/30 11:13:12;;;;;;;0.60;0.60;;;20.10;99.90;;;;;;5076310;28;20024;-70
2023/06/30 11:15:43;;;;;;;2.42;0.68;;;20.20;99.90;;;;;;5076687;28;20036;-70
2023/06/30 11:18:20;;;;;;;1.10;0.80;;;20.40;99.90;;;;;;5075958;28;20086;-70
2023/06/30 11:20:58;;;;;;;1.58;1.20;;;20.40;99.90;;;;;;5076960;28;20021;-70
2023/06/30 11:23:29;;;;;;;3.20;1.85;;;20.30;99.90;;;;;;5075559;28;20028;-70
2023/06/30 11:25:57;;;;;;;2.40;1.02;;;20.40;99.90;;;;;;5075521;28;20025;-70
2023/06/30 11:28:26;;;;;;;2.50;1.42;;;20.20;99.90;;;;;;5076768;28;20027;-70
2023/06/30 11:30:52;;;;;;;2.65;1.42;;;20.10;99.90;;;;;;5076643;28;20107;-70
2023/06/30 11:33:18;;;;;;;2.08;1.30;;;20.00;99.90;;;;;;5075313;28;20055;-70
2023/06/30 11:35:48;;;;;;;2.15;1.38;;;20.10;99.90;;;;;;5075657;28;20020;-70
2023/06/30 11:38:14;;;;;;;1.40;1.30;;;20.00;99.90;;;;;;5075935;28;20038;-70
2023/06/30 11:40:48;;;;;;;1.83;1.50;;;20.10;99.90;;;;;;5075224;28;20024;-70
2023/06/30 11:43:14;;;;;;;2.90;1.00;;;20.10;99.90;;;;;;5075508;28;20089;-70
2023/06/30 11:45:39;;;;;;;1.95;1.23;;;20.20;99.90;;;;;;5076788;28;20029;-70
2023/06/30 11:48:06;;;;;;;1.83;1.50;;;20.30;99.90;;;;;;5079061;28;20054;-70
2023/06/30 11:50:33;;;;;;;5.00;1.70;;;20.30;99.90;;;;;;5079061;28;20043;-70
2023/06/30 11:53:00;;;;;;;4.38;1.80;;;20.30;99.90;;;;;;5079797;28;20020;-70
2023/06/30 11:55:27;;;;;;;2.53;2.00;;;20.20;99.90;;;;;;5079510;28;20043;-70
2023/06/30 11:57:53;;;;;;;4.05;2.25;;;20.30;99.90;;;;;;5078665;28;20024;-70
2023/06/30 12:00:21;;;;;;;5.20;2.30;;;20.30;99.90;;;;;;5079154;28;20025;-70
2023/06/30 12:02:48;;;;;;;2.45;2.13;;;20.30;99.90;;;;;;5079285;28;20046;-70
2023/06/30 12:05:21;;;;;;;6.30;2.70;;;20.30;99.90;;;;;;5079576;28;20077;-70
2023/06/30 12:07:51;;;;;;;5.18;2.97;;;20.10;99.90;;;;;;5079173;28;20021;-70
2023/06/30 12:10:17;;;;;;;5.63;2.83;;;20.20;99.90;;;;;;5078792;28;20056;-70
2023/06/30 12:12:43;;;;;;;5.05;3.20;;;20.10;99.90;;;;;;5078563;28;20051;-70
2023/06/30 12:15:11;;;;;;;4.30;3.10;;;20.00;99.90;;;;;;5078910;28;20025;-70
2023/06/30 12:17:39;;;;;;;10.90;3.78;;;20.10;99.90;;;;;;5078542;28;20063;-70
2023/06/30 12:20:06;;;;;;;5.32;3.65;;;20.20;99.90;;;;;;5079413;28;20055;-70
2023/06/30 12:22:35;;;;;;;5.60;3.45;;;20.30;99.90;;;;;;5078392;28;20032;-70
2023/06/30 12:25:02;;;;;;;5.82;3.03;;;20.40;99.90;;;;;;5078382;28;20032;-70
2023/06/30 12:27:30;;;;;;;3.80;3.20;;;20.40;99.90;;;;;;5078229;28;20032;-70
2023/06/30 12:29:56;;;;;;;4.55;3.35;;;20.30;99.90;;;;;;5078564;28;20050;-70
2023/06/30 12:32:26;;;;;;;6.15;3.30;;;20.40;99.90;;;;;;5078197;28;20024;-70
2023/06/30 12:35:02;;;;;;;6.87;3.60;;;20.30;99.90;;;;;;5079692;28;20017;-67
2023/06/30 12:37:29;;;;;;;5.00;3.20;;;20.20;99.90;;;;;;5079084;28;20045;-68
2023/06/30 12:39:58;;;;;;;7.28;3.75;;;20.30;99.90;;;;;;5078398;28;20024;-68